Terminal Aerodrome Forecast
Issued by NWS Birmingham, AL

Home | Current Version | Previous Version | Text Only | Print | Product List | Glossary On
Versions: 1 2 3 4 5 6 7 8 9 10 11 12 13 14 15 16 17 18 19 20 21
000
FTUS44 KBMX 261900 AAA
TAFBHM
TAF AMD
KBHM 261959Z 2620/2718 30012G18KT P6SM SCT030 SCT250
     FM262300 30008KT P6SM SKC
     FM270300 30004KT P6SM BKN070
     FM270900 22002KT P6SM BKN040=

USA.gov is the U.S. government's official web portal to all federal, state and local government web resources and services.